Neptune Beach, FL

02:45 EST le 22 décembre 2014 (GMT -0500)
Leeward Landing @ Neptune Beach | Change Station
CLOSE
Current Station
Stations météorologiques personnelles
Location: Neptune Beach, FL
Altitude: 14 ft
Stations météo à proximité

Alt. 14 ft 30.32 °N, 81.41 °W | Updated 2 seconds ago

Pluie
Pluie
59.4 ° F
Paraît 59.4 ° F
N
0.0
Vent Variable Vent de OSO
Gusts 0.0 mph

Aujourd'hui
Haut(e) -- | Bas -- ° F
--% Risque de précip.
Hier
Haut(e) -- | Bas -- ° F
Precip. -- pouce
7:18 AM 5:30 PM
Nouvelle lune, 0% visible
Pression 30.04 pouce
Visibilité 2.5 Miles terrestres
Nuages Couvert 300 ft
Point de rosée -8 ° F
Humidité 6%
Précipitations 0.09 pouce
Profondeur de la couche neigeuse Non disponible.
UV 0 sur 12
Pollen .50 sur 12
Qualité de l'air Non disponible.
Flu Activity Non disponible.
SPECI KNRB 220738Z AUTO 00000KT 2 1/2SM -RA BR OVC003 15/15 A3004 RMK AO2 RAB08 P0003 T01500150 $

More Conditions Fewer Conditions

Pression 30.04 pouce
Visibilité 2.5 Miles terrestres
Nuages Couvert 300 ft
Point de rosée -8 ° F
Humidité 6%
Précipitations 0.09 pouce
Profondeur de la couche neigeuse Non disponible.
UV 0 sur 12
Pollen .50 sur 12
Qualité de l'air Non disponible.
Flu Activity Non disponible.
SPECI KNRB 220738Z AUTO 00000KT 2 1/2SM -RA BR OVC003 15/15 A3004 RMK AO2 RAB08 P0003 T01500150 $

More Conditions Fewer Conditions

10-Day Weather Forecast

Almanac

Astronomie

Dec. 22, 2014 Lever Coucher
Temps réel
Crépuscule civil
Crépuscule nautique
Crépuscule astronomique
Lune
Durée de lumière visible
Longueur du jour
Tomorrow will be .
, % of the Moon is Illuminated

Extrêmes aujourd'hui

State Highs State Lows

Community

WunderPhotos

Upload Photos

1,779,564 Photos téléchargées !

WunderBlogs® & News

Nearby

Qualité de l'air

  Qualité de l'air Indice de la qualité de l'air Polluant
Not available.

Épaisseur de neige

Station Depth Altitude

Activité sismique

Ville Distance Mag. Time & Date
Minimum magnitude displayed is 2.5.

Températures des eaux côtières

Lieu Température

Stations météo à proximité